Time;durP1;ratioP1;P1;durP2;ratioP2;P2;SDS_P1;SDS_P2;PMS_P1;PMS_P2;Temp;Humidity;BMP_temperature;BMP_pressure;BME280_temperature;BME280_humidity;BME280_pressure;Samples;Min_cycle;Max_cycle;Signal;HPM_P1;HPM_P2
2023/07/02 00:00:33;;;;;;;4.90;4.50;;;;;;;17.88;100.00;99705.53;5037346;28;20192;-71
2023/07/02 00:03:00;;;;;;;4.13;3.83;;;;;;;17.89;100.00;99704.63;5027294;28;20932;-72
2023/07/02 00:05:26;;;;;;;4.80;4.20;;;;;;;17.90;100.00;99703.72;5026242;28;20258;-72
2023/07/02 00:07:51;;;;;;;4.20;3.90;;;;;;;17.93;100.00;99695.69;5034521;28;20938;-71
2023/07/02 00:10:16;;;;;;;4.83;4.43;;;;;;;17.94;100.00;99697.38;5025059;28;20200;-71
2023/07/02 00:12:44;;;;;;;4.80;4.40;;;;;;;17.96;100.00;99700.78;5026382;28;20195;-70
2023/07/02 00:15:09;;;;;;;4.70;4.40;;;;;;;17.96;100.00;99707.78;5023793;28;20674;-72
2023/07/02 00:17:39;;;;;;;4.83;4.53;;;;;;;17.96;100.00;99705.16;5022713;28;20190;-72
2023/07/02 00:20:06;;;;;;;5.13;4.67;;;;;;;17.96;100.00;99706.00;5025472;28;20220;-72
2023/07/02 00:22:36;;;;;;;4.50;4.20;;;;;;;17.96;100.00;99707.78;5019174;28;20196;-72
2023/07/02 00:25:01;;;;;;;5.10;4.70;;;;;;;17.95;100.00;99709.53;5025355;28;20215;-72
2023/07/02 00:27:27;;;;;;;4.67;4.37;;;;;;;17.93;100.00;99711.38;5039400;28;20266;-72
2023/07/02 00:29:52;;;;;;;4.30;4.00;;;;;;;17.93;100.00;99706.16;5026234;28;20197;-72
2023/07/02 00:32:17;;;;;;;4.23;3.93;;;;;;;17.93;100.00;99711.38;5025301;28;20223;-72
2023/07/02 00:34:42;;;;;;;4.40;4.00;;;;;;;17.92;100.00;99714.09;5026608;28;20210;-73
2023/07/02 00:37:08;;;;;;;4.50;4.10;;;;;;;17.93;100.00;99714.00;5023649;28;20693;-72
2023/07/02 00:39:33;;;;;;;4.20;3.90;;;;;;;17.90;100.00;99708.94;5027297;28;20198;-72
2023/07/02 00:42:02;;;;;;;4.23;3.93;;;;;;;17.91;100.00;99713.25;5025213;28;20628;-72
2023/07/02 00:44:28;;;;;;;4.40;4.10;;;;;;;17.91;100.00;99709.78;5027363;28;20906;-72
2023/07/02 00:46:53;;;;;;;4.60;4.30;;;;;;;17.91;100.00;99709.78;5025903;28;20187;-72
2023/07/02 00:49:19;;;;;;;4.73;4.37;;;;;;;17.93;100.00;99705.31;5025413;28;20364;-72
2023/07/02 00:51:44;;;;;;;4.53;4.07;;;;;;;17.94;100.00;99701.78;5025423;28;20692;-72
2023/07/02 00:54:09;;;;;;;4.30;4.00;;;;;;;17.96;100.00;99711.25;5025989;28;20279;-71
2023/07/02 00:56:35;;;;;;;4.63;4.33;;;;;;;17.97;100.00;99704.25;5022130;28;20219;-72
2023/07/02 00:59:00;;;;;;;4.67;4.30;;;;;;;17.97;100.00;99715.59;5018145;28;20203;-72
2023/07/02 01:01:33;;;;;;;3.93;3.63;;;;;;;17.98;100.00;99711.22;5020261;28;20192;-72
2023/07/02 01:04:05;;;;;;;3.90;3.60;;;;;;;18.01;100.00;99718.91;5024280;28;20200;-71
2023/07/02 01:06:35;;;;;;;4.80;4.40;;;;;;;18.02;100.00;99712.75;5023616;28;20206;-72
2023/07/02 01:09:05;;;;;;;4.97;4.53;;;;;;;18.03;100.00;99714.44;5027879;28;20297;-71
2023/07/02 01:11:34;;;;;;;4.80;4.40;;;;;;;18.04;100.00;99715.31;5025892;28;20180;-72
2023/07/02 01:14:05;;;;;;;5.20;4.80;;;;;;;18.04;100.00;99721.38;5023838;28;20200;-71
2023/07/02 01:16:32;;;;;;;5.30;4.90;;;;;;;18.04;100.00;99726.59;5025264;28;20209;-72
2023/07/02 01:19:03;;;;;;;4.90;4.50;;;;;;;18.02;100.00;99717.97;5026630;28;20253;-72
2023/07/02 01:21:29;;;;;;;4.20;3.90;;;;;;;18.02;100.00;99722.38;5020921;28;20617;-72
2023/07/02 01:23:54;;;;;;;5.13;4.73;;;;;;;18.02;100.00;99719.75;5024743;28;20193;-71
2023/07/02 01:26:20;;;;;;;4.40;4.10;;;;;;;18.01;100.00;99720.69;5016163;28;20222;-72
2023/07/02 01:28:45;;;;;;;4.53;4.13;;;;;;;18.01;100.00;99724.13;5022227;28;20267;-72
2023/07/02 01:31:10;;;;;;;4.77;4.37;;;;;;;17.99;100.00;99720.78;5024635;28;20249;-72
2023/07/02 01:33:36;;;;;;;4.23;3.93;;;;;;;17.99;100.00;99726.00;5015941;28;20325;-72
2023/07/02 01:36:01;;;;;;;4.43;4.03;;;;;;;17.98;100.00;99719.91;5015721;28;20211;-72
2023/07/02 01:38:27;;;;;;;3.47;3.27;;;;;;;17.97;100.00;99725.19;5025311;28;20197;-72
2023/07/02 01:40:53;;;;;;;3.80;3.50;;;;;;;17.95;100.00;99722.63;5020266;28;20249;-72
2023/07/02 01:43:18;;;;;;;4.20;3.67;;;;;;;17.90;100.00;99727.25;5037569;28;20645;-72
2023/07/02 01:45:43;;;;;;;3.77;3.30;;;;;;;17.88;100.00;99731.72;5018408;28;20702;-72
2023/07/02 01:48:09;;;;;;;4.53;3.40;;;;;;;17.88;100.00;99728.25;5023237;28;20307;-71
2023/07/02 01:50:34;;;;;;;4.47;3.57;;;;;;;17.87;100.00;99735.25;5025784;28;20543;-72
2023/07/02 01:52:59;;;;;;;3.50;3.20;;;;;;;17.86;100.00;99733.56;5026866;28;20275;-72
2023/07/02 01:55:25;;;;;;;3.93;3.57;;;;;;;17.84;100.00;99738.03;5021659;28;20204;-72
2023/07/02 01:57:50;;;;;;;3.60;3.30;;;;;;;17.81;100.00;99738.16;5022044;28;20236;-72
2023/07/02 02:00:16;;;;;;;2.97;2.77;;;;;;;17.81;100.00;99739.03;5056372;28;20202;-72
2023/07/02 02:02:43;;;;;;;4.03;3.10;;;;;;;17.81;100.00;99741.63;5024706;28;20202;-72
2023/07/02 02:05:09;;;;;;;3.63;3.33;;;;;;;17.81;100.00;99751.25;5024917;28;20757;-72
2023/07/02 02:07:35;;;;;;;3.90;3.30;;;;;;;17.79;100.00;99742.63;5021847;28;20215;-72
2023/07/02 02:10:02;;;;;;;5.27;3.07;;;;;;;17.77;100.00;99745.31;5024579;28;20344;-72
2023/07/02 02:12:28;;;;;;;3.60;3.30;;;;;;;17.77;100.00;99753.16;5023563;28;20298;-72
2023/07/02 02:14:54;;;;;;;3.70;3.37;;;;;;;17.75;100.00;99751.56;5024626;28;20208;-72
2023/07/02 02:17:19;;;;;;;3.43;3.10;;;;;;;17.73;100.00;99746.38;5023759;28;20189;-72
2023/07/02 02:19:44;;;;;;;4.53;3.40;;;;;;;17.73;100.00;99748.16;5025007;28;20254;-71
2023/07/02 02:22:10;;;;;;;3.90;3.50;;;;;;;17.71;100.00;99752.63;5025275;28;20193;-72
2023/07/02 02:24:35;;;;;;;3.67;3.37;;;;;;;17.67;100.00;99752.75;5026361;28;20231;-72
2023/07/02 02:27:00;;;;;;;4.27;3.33;;;;;;;17.65;100.00;99754.59;5019166;28;20554;-72
2023/07/02 02:29:26;;;;;;;3.23;2.93;;;;;;;17.65;100.00;99759.81;5024934;28;20624;-71
2023/07/02 02:31:51;;;;;;;3.90;3.50;;;;;;;17.64;100.00;99760.75;5023705;28;20188;-72
2023/07/02 02:34:16;;;;;;;4.00;3.60;;;;;;;17.64;100.00;99763.34;5056735;28;20226;-72
2023/07/02 02:36:42;;;;;;;4.20;3.80;;;;;;;17.64;100.00;99752.88;5025347;28;20196;-72
2023/07/02 02:39:07;;;;;;;4.33;3.93;;;;;;;17.66;100.00;99758.91;5019466;28;20226;-71
2023/07/02 02:41:33;;;;;;;4.03;3.73;;;;;;;17.66;100.00;99753.66;5025611;28;20191;-71
2023/07/02 02:43:58;;;;;;;7.07;3.60;;;;;;;17.63;100.00;99761.66;5027512;28;20669;-72
2023/07/02 02:46:23;;;;;;;4.57;4.17;;;;;;;17.58;100.00;99761.03;5025931;28;20211;-72
2023/07/02 02:48:50;;;;;;;4.70;4.20;;;;;;;17.55;100.00;99762.94;5042743;28;20668;-71
2023/07/02 02:51:15;;;;;;;3.97;3.67;;;;;;;17.49;100.00;99759.69;5026065;28;20206;-72
2023/07/02 02:53:40;;;;;;;5.43;4.13;;;;;;;17.44;100.00;99756.44;5026808;28;20191;-72
2023/07/02 02:56:06;;;;;;;5.00;4.07;;;;;;;17.37;100.00;99753.25;5026460;28;20934;-72
2023/07/02 02:58:31;;;;;;;7.40;4.57;;;;;;;17.34;100.00;99758.63;5027361;28;20185;-71
2023/07/02 03:00:56;;;;;;;5.03;4.50;;;;;;;17.32;100.00;99760.47;5024777;28;20309;-72
2023/07/02 03:03:24;;;;;;;4.43;4.03;;;;;;;17.29;100.00;99752.78;5031181;28;20195;-72
2023/07/02 03:05:49;;;;;;;6.87;4.20;;;;;;;17.28;100.00;99753.69;5019876;28;20206;-72
2023/07/02 03:08:15;;;;;;;4.40;4.00;;;;;;;17.27;100.00;99759.84;5042913;28;20227;-72
2023/07/02 03:10:40;;;;;;;4.43;4.00;;;;;;;17.27;100.00;99765.06;5021935;28;20275;-71
2023/07/02 03:13:05;;;;;;;6.20;4.47;;;;;;;17.27;100.00;99766.81;5029766;28;20801;-72
2023/07/02 03:15:30;;;;;;;5.03;4.30;;;;;;;17.26;100.00;99770.34;5026508;28;20207;-72
2023/07/02 03:17:56;;;;;;;4.43;4.03;;;;;;;17.25;100.00;99769.50;5027872;28;20555;-72
2023/07/02 03:20:21;;;;;;;3.77;3.43;;;;;;;17.26;100.00;99780.81;5027461;28;20286;-71
2023/07/02 03:22:47;;;;;;;4.43;4.03;;;;;;;17.25;100.00;99789.56;5026718;28;20234;-71
2023/07/02 03:25:12;;;;;;;5.67;4.60;;;;;;;17.25;100.00;99785.19;5025603;28;20222;-71
2023/07/02 03:27:37;;;;;;;5.17;4.10;;;;;;;17.22;100.00;99790.56;5027532;28;20257;-71
2023/07/02 03:30:03;;;;;;;4.80;4.40;;;;;;;17.21;100.00;99786.25;5029815;28;20206;-72
2023/07/02 03:32:29;;;;;;;6.00;4.30;;;;;;;17.19;100.00;99793.31;5026863;28;20191;-72
2023/07/02 03:34:54;;;;;;;5.63;4.67;;;;;;;17.17;100.00;99790.78;5028185;28;20207;-72
2023/07/02 03:37:19;;;;;;;4.53;3.97;;;;;;;17.16;100.00;99793.47;5025401;28;20767;-72
2023/07/02 03:39:45;;;;;;;6.03;4.07;;;;;;;17.11;100.00;99798.88;5020638;28;20180;-72
2023/07/02 03:42:10;;;;;;;6.07;5.10;;;;;;;17.07;100.00;99794.72;5026354;28;20191;-72
2023/07/02 03:44:35;;;;;;;4.50;4.10;;;;;;;17.04;100.00;99802.69;5028988;28;20184;-71
2023/07/02 03:47:01;;;;;;;5.50;4.60;;;;;;;17.01;100.00;99797.59;5026081;28;20204;-72
2023/07/02 03:49:26;;;;;;;5.33;4.40;;;;;;;17.00;100.00;99801.13;5027672;28;20965;-71
2023/07/02 03:51:52;;;;;;;6.33;4.20;;;;;;;16.98;100.00;99800.34;5027541;28;20234;-72
2023/07/02 03:54:17;;;;;;;4.87;4.30;;;;;;;16.94;100.00;99810.03;5026299;28;20575;-72
2023/07/02 03:56:43;;;;;;;5.07;4.40;;;;;;;16.93;100.00;99810.97;5022981;28;20187;-73
2023/07/02 03:59:08;;;;;;;5.20;4.70;;;;;;;16.92;100.00;99802.28;5026601;28;20183;-71
2023/07/02 04:01:33;;;;;;;7.50;5.47;;;;;;;16.92;100.00;99817.97;5025351;28;20661;-72
2023/07/02 04:03:59;;;;;;;6.67;4.60;;;;;;;16.95;100.00;99817.00;5026976;28;20726;-72
2023/07/02 04:06:24;;;;;;;4.80;4.17;;;;;;;16.99;100.00;99821.19;5026342;28;20199;-72
2023/07/02 04:08:50;;;;;;;4.87;4.47;;;;;;;17.02;100.00;99828.88;5019269;28;20636;-71
2023/07/02 04:11:15;;;;;;;5.27;4.77;;;;;;;17.06;100.00;99830.47;5025229;28;20270;-72
2023/07/02 04:13:41;;;;;;;4.33;3.93;;;;;;;17.09;100.00;99828.63;5024782;28;20195;-74
2023/07/02 04:16:06;;;;;;;5.37;4.50;;;;;;;17.10;100.00;99825.94;5026126;28;20235;-71
2023/07/02 04:18:32;;;;;;;5.03;4.53;;;;;;;17.12;100.00;99837.19;5026045;28;20210;-73
2023/07/02 04:20:58;;;;;;;6.17;4.70;;;;;;;17.14;100.00;99839.75;5024817;28;20215;-73
2023/07/02 04:23:23;;;;;;;4.97;4.37;;;;;;;17.13;100.00;99841.50;5025530;28;20199;-73
2023/07/02 04:25:48;;;;;;;4.90;4.50;;;;;;;17.13;100.00;99849.34;5024860;28;20586;-73
2023/07/02 04:28:14;;;;;;;5.00;4.50;;;;;;;17.14;100.00;99850.19;5025244;28;20217;-73
2023/07/02 04:30:39;;;;;;;7.83;4.53;;;;;;;17.14;100.00;99858.03;5027807;28;20275;-73
2023/07/02 04:33:07;;;;;;;6.40;4.57;;;;;;;17.15;100.00;99852.75;5023948;28;20318;-73
2023/07/02 04:35:34;;;;;;;4.63;4.23;;;;;;;17.21;100.00;99852.47;5026338;28;20215;-73
2023/07/02 04:37:59;;;;;;;4.93;4.43;;;;;;;17.29;100.00;99857.38;5025764;28;20246;-73
2023/07/02 04:40:25;;;;;;;5.20;4.67;;;;;;;17.39;100.00;99859.59;5025107;28;20191;-73
2023/07/02 04:42:57;;;;;;;5.20;4.70;;;;;;;17.57;100.00;99860.50;5024846;28;20192;-73
2023/07/02 04:45:23;;;;;;;4.67;4.20;;;;;;;17.80;100.00;99854.25;5024128;28;20242;-71
2023/07/02 04:47:48;;;;;;;7.57;4.80;;;;;;;18.00;100.00;99857.75;5025767;28;20742;-72
2023/07/02 04:50:13;;;;;;;5.53;4.70;;;;;;;18.06;100.00;99865.31;5026116;28;20199;-72
2023/07/02 04:52:39;;;;;;;5.20;4.23;;;;;;;18.06;100.00;99866.16;5015529;28;20193;-72
2023/07/02 04:55:05;;;;;;;5.13;4.63;;;;;;;18.07;100.00;99867.03;5026849;28;20591;-72
2023/07/02 04:57:31;;;;;;;7.47;4.70;;;;;;;18.08;100.00;99868.69;5025383;28;20587;-71
2023/07/02 04:59:57;;;;;;;5.60;4.10;;;;;;;18.05;100.00;99863.63;5025274;28;20608;-71
2023/07/02 05:02:22;;;;;;;6.07;4.43;;;;;;;18.02;100.00;99866.38;5023865;28;20913;-72
2023/07/02 05:04:48;;;;;;;7.00;4.57;;;;;;;18.00;100.00;99876.91;5025054;28;20307;-72
2023/07/02 05:07:13;;;;;;;4.43;4.03;;;;;;;17.99;100.00;99875.22;5024478;28;20191;-72
2023/07/02 05:09:38;;;;;;;5.33;4.63;;;;;;;17.99;100.00;99880.47;5026416;28;20564;-72
2023/07/02 05:12:04;;;;;;;5.57;4.47;;;;;;;18.01;100.00;99880.38;5026416;28;20191;-71
2023/07/02 05:14:29;;;;;;;5.40;4.47;;;;;;;18.04;100.00;99886.31;5025418;28;20662;-72
2023/07/02 05:16:54;;;;;;;5.40;4.17;;;;;;;18.11;100.00;99886.88;5024915;28;20641;-72
2023/07/02 05:19:20;;;;;;;4.60;3.97;;;;;;;18.18;100.00;99888.31;5056398;28;20568;-72
2023/07/02 05:21:45;;;;;;;5.10;4.40;;;;;;;18.27;100.00;99894.88;5023705;28;20725;-72
2023/07/02 05:24:10;;;;;;;5.77;4.50;;;;;;;18.36;100.00;99889.19;5021545;28;20198;-72
2023/07/02 05:26:36;;;;;;;6.27;4.20;;;;;;;18.45;100.00;99897.56;5017794;28;20265;-71
2023/07/02 05:29:02;;;;;;;4.50;4.07;;;;;;;18.54;100.00;99891.84;5023612;28;20227;-72
2023/07/02 05:31:27;;;;;;;5.73;4.13;;;;;;;18.68;100.00;99888.56;5020964;28;20201;-72
2023/07/02 05:33:53;;;;;;;5.20;4.13;;;;;;;18.87;100.00;99894.56;5025664;28;20244;-72
2023/07/02 05:36:19;;;;;;;4.50;3.80;;;;;;;19.12;100.00;99896.03;5024550;28;20215;-71
2023/07/02 05:38:44;;;;;;;4.17;3.77;;;;;;;19.32;100.00;99895.00;5020017;28;20321;-72
2023/07/02 05:41:09;;;;;;;5.20;3.63;;;;;;;19.56;100.00;99899.03;5015892;28;20303;-70
2023/07/02 05:43:35;;;;;;;4.40;4.00;;;;;;;19.84;100.00;99900.19;5027085;28;20790;-72
2023/07/02 05:46:00;;;;;;;7.73;4.03;;;;;;;19.84;100.00;99902.81;5019249;28;20225;-72
2023/07/02 05:48:26;;;;;;;4.07;3.67;;;;;;;20.00;100.00;99902.84;5018682;28;20218;-72
2023/07/02 05:50:52;;;;;;;8.57;4.40;;;;;;;20.02;100.00;99903.63;5024088;28;20553;-70
2023/07/02 05:53:17;;;;;;;4.73;3.97;;;;;;;20.08;100.00;99909.38;5029670;28;20306;-71
2023/07/02 05:55:42;;;;;;;5.17;3.77;;;;;;;20.12;100.00;99901.34;5021212;28;20219;-71
2023/07/02 05:58:08;;;;;;;7.40;4.10;;;;;;;20.12;100.00;99903.97;5024116;28;20274;-71
2023/07/02 06:00:33;;;;;;;6.17;3.83;;;;;;;20.17;100.00;99915.91;5015245;28;20553;-71
2023/07/02 06:02:58;;;;;;;6.00;4.40;;;;;;;20.25;100.00;99918.09;5025328;28;20198;-72
2023/07/02 06:05:24;;;;;;;9.47;5.33;;;;;;;20.36;100.00;99917.53;5022672;28;20268;-71
2023/07/02 06:07:49;;;;;;;8.43;5.73;;;;;;;20.24;100.00;99922.53;5022502;28;20614;-72
2023/07/02 06:10:15;;;;;;;6.23;5.63;;;;;;;20.48;100.00;99919.44;5023912;28;20195;-72
2023/07/02 06:12:40;;;;;;;7.03;6.07;;;;;;;20.64;100.00;99926.47;5027327;28;20207;-72
2023/07/02 06:15:06;;;;;;;8.07;6.13;;;;;;;20.78;100.00;99923.09;5023833;28;20215;-72
2023/07/02 06:17:31;;;;;;;8.20;6.87;;;;;;;20.93;100.00;99934.50;5023673;28;20640;-73
2023/07/02 06:19:57;;;;;;;9.17;7.27;;;;;;;21.05;100.00;99931.16;5023866;28;20229;-73
2023/07/02 06:22:23;;;;;;;10.27;6.83;;;;;;;21.22;99.54;99935.44;5020622;28;20269;-73
2023/07/02 06:24:48;;;;;;;10.67;7.30;;;;;;;21.61;97.90;99930.53;5021576;28;20750;-73
2023/07/02 06:27:13;;;;;;;8.60;7.10;;;;;;;22.19;96.06;99933.13;5019228;28;22452;-72
2023/07/02 06:29:39;;;;;;;8.83;7.40;;;;;;;22.58;93.43;99928.88;5019475;28;20689;-72
2023/07/02 06:32:04;;;;;;;10.20;7.90;;;;;;;22.80;91.54;99932.75;5027827;28;20249;-72
2023/07/02 06:34:30;;;;;;;8.90;7.30;;;;;;;22.93;90.53;99932.78;5013396;28;20191;-72
2023/07/02 06:36:55;;;;;;;8.93;7.73;;;;;;;23.26;89.27;99932.34;5021564;28;20210;-72
2023/07/02 06:39:20;;;;;;;8.70;7.80;;;;;;;23.60;86.17;99937.09;5022926;28;20290;-72
2023/07/02 06:41:46;;;;;;;9.13;7.47;;;;;;;23.80;83.75;99932.25;5020925;28;20584;-72
2023/07/02 06:44:12;;;;;;;8.93;8.00;;;;;;;24.15;82.72;99928.91;5019636;28;20183;-71
2023/07/02 06:46:37;;;;;;;10.27;8.93;;;;;;;24.64;79.89;99929.78;5022800;28;20330;-72
2023/07/02 06:49:02;;;;;;;9.87;8.57;;;;;;;24.91;78.00;99936.66;5019200;28;20687;-71
2023/07/02 06:51:29;;;;;;;10.07;9.00;;;;;;;25.15;78.28;99935.75;5024824;28;20192;-72
2023/07/02 06:53:54;;;;;;;10.13;8.93;;;;;;;25.56;78.22;99934.44;5023622;28;20184;-73
2023/07/02 06:56:19;;;;;;;10.97;9.57;;;;;;;25.81;76.12;99929.84;5020141;28;20251;-71
2023/07/02 06:58:45;;;;;;;11.07;9.70;;;;;;;26.11;73.98;99941.66;5017753;28;20211;-73
2023/07/02 07:01:10;;;;;;;11.90;9.55;;;;;;;26.39;72.53;99927.00;5050662;28;20191;-74
2023/07/02 07:03:36;;;;;;;12.25;10.48;;;;;;;26.55;71.86;99939.00;5018225;28;20184;-72
2023/07/02 07:06:01;;;;;;;10.77;9.68;;;;;;;27.05;71.57;99935.81;5020287;28;21082;-73
2023/07/02 07:08:27;;;;;;;12.85;11.55;;;;;;;27.58;68.47;99939.34;5016868;28;20282;-73
2023/07/02 07:10:52;;;;;;;12.90;11.20;;;;;;;27.75;67.79;99936.06;5021202;28;20451;-74
2023/07/02 07:13:18;;;;;;;18.95;11.75;;;;;;;27.78;66.70;99941.13;5021417;28;20194;-73
2023/07/02 07:15:43;;;;;;;11.98;10.70;;;;;;;27.83;66.52;99938.06;5019023;28;20211;-73
2023/07/02 07:18:09;;;;;;;10.88;9.77;;;;;;;27.94;65.79;99937.13;5027303;28;20194;-75
2023/07/02 07:20:34;;;;;;;10.52;9.52;;;;;;;27.97;65.49;99936.88;5043229;28;20183;-74
2023/07/02 07:23:01;;;;;;;11.27;10.13;;;;;;;28.06;64.76;99941.34;5025220;28;20714;-72
2023/07/02 07:25:27;;;;;;;12.60;11.23;;;;;;;28.26;64.95;99939.59;5019449;28;20204;-73
2023/07/02 07:27:52;;;;;;;11.82;10.63;;;;;;;28.35;64.66;99932.63;5027651;28;20224;-73
2023/07/02 07:30:22;;;;;;;11.98;10.73;;;;;;;28.48;64.85;99936.84;5028986;28;20571;-73
2023/07/02 07:32:51;;;;;;;12.63;11.43;;;;;;;28.53;63.62;99934.59;5031517;28;20671;-73
2023/07/02 07:35:17;;;;;;;12.18;10.98;;;;;;;28.45;63.28;99936.13;5025261;28;20419;-73
2023/07/02 07:37:42;;;;;;;13.38;10.77;;;;;;;28.24;63.37;99936.25;5025531;28;20191;-73
2023/07/02 07:40:08;;;;;;;13.00;11.70;;;;;;;28.08;63.02;99938.56;5025460;28;20202;-73
2023/07/02 07:42:33;;;;;;;13.60;12.10;;;;;;;28.02;62.56;99939.94;5019426;28;20196;-74
2023/07/02 07:44:59;;;;;;;14.68;13.20;;;;;;;28.10;61.78;99941.94;5033061;28;20219;-73
2023/07/02 07:47:24;;;;;;;14.88;13.30;;;;;;;27.77;61.74;99942.09;5029700;28;20188;-74
2023/07/02 07:49:49;;;;;;;14.10;12.73;;;;;;;27.59;61.42;99941.03;5026754;28;20219;-74
2023/07/02 07:52:15;;;;;;;16.10;14.50;;;;;;;27.26;63.03;99940.25;5025313;28;20180;-74
2023/07/02 07:54:40;;;;;;;17.50;15.70;;;;;;;27.14;61.98;99940.34;5025817;28;20208;-74
2023/07/02 07:57:06;;;;;;;17.55;15.63;;;;;;;27.12;62.97;99936.97;5031772;28;20312;-74
2023/07/02 07:59:31;;;;;;;17.05;15.35;;;;;;;27.41;62.34;99933.63;5030314;28;20184;-74
2023/07/02 08:01:57;;;;;;;17.58;15.75;;;;;;;27.37;62.45;99942.88;5034447;28;20245;-74
2023/07/02 08:04:22;;;;;;;18.02;16.23;;;;;;;27.54;63.00;99941.44;5024989;28;20810;-73
2023/07/02 08:06:47;;;;;;;20.95;17.73;;;;;;;27.03;62.78;99935.94;5029827;28;20271;-74
2023/07/02 08:09:13;;;;;;;21.38;17.55;;;;;;;27.17;63.12;99931.25;5033663;28;20624;-74
2023/07/02 08:11:38;;;;;;;18.60;16.70;;;;;;;27.38;63.15;99931.25;5037462;28;20249;-73
2023/07/02 08:14:03;;;;;;;19.60;17.58;;;;;;;27.57;63.13;99937.66;5027469;28;20229;-74
2023/07/02 08:16:29;;;;;;;18.58;16.58;;;;;;;27.72;62.49;99930.19;5026739;28;20245;-75
2023/07/02 08:18:54;;;;;;;19.05;17.05;;;;;;;27.78;62.71;99927.84;5039482;28;20178;-74
2023/07/02 08:21:19;;;;;;;17.42;15.68;;;;;;;27.73;63.42;99935.38;5035384;28;20187;-73
2023/07/02 08:23:45;;;;;;;19.58;17.52;;;;;;;27.57;63.25;99935.88;5024465;28;20341;-74
2023/07/02 08:26:11;;;;;;;20.67;18.52;;;;;;;27.27;62.90;99926.88;5022132;28;20203;-73
2023/07/02 08:28:38;;;;;;;20.33;18.23;;;;;;;27.13;63.00;99919.22;5026390;28;20277;-73
2023/07/02 08:31:03;;;;;;;20.50;17.80;;;;;;;27.05;63.18;99927.84;5036477;28;20207;-74
2023/07/02 08:33:29;;;;;;;17.92;16.13;;;;;;;27.19;63.66;99927.53;5036656;28;20230;-74
2023/07/02 08:35:54;;;;;;;17.75;16.02;;;;;;;27.20;63.65;99925.69;5027467;28;20211;-73
2023/07/02 08:38:19;;;;;;;18.50;16.67;;;;;;;27.19;64.21;99929.31;5028929;28;20261;-72
2023/07/02 08:40:45;;;;;;;18.85;16.90;;;;;;;27.20;63.70;99929.22;5024068;28;20191;-73
2023/07/02 08:43:10;;;;;;;19.50;17.50;;;;;;;27.28;63.38;99923.25;5024518;28;20290;-73
2023/07/02 08:45:36;;;;;;;18.33;16.42;;;;;;;27.33;63.60;99931.63;5030399;28;20289;-74
2023/07/02 08:48:02;;;;;;;18.42;16.38;;;;;;;27.39;62.91;99914.31;5023391;28;20268;-75
2023/07/02 08:50:27;;;;;;;18.08;16.25;;;;;;;27.33;62.54;99925.50;5063499;28;20183;-74
2023/07/02 08:52:54;;;;;;;17.83;15.95;;;;;;;27.24;62.84;99921.81;5024421;28;20219;-75
2023/07/02 08:55:19;;;;;;;18.98;17.05;;;;;;;26.90;61.80;99922.00;5023582;28;20199;-74
2023/07/02 08:57:53;;;;;;;19.17;17.05;;;;;;;26.62;62.88;99922.44;5032131;28;20527;-74
2023/07/02 09:00:19;;;;;;;19.95;17.20;;;;;;;26.45;63.60;99929.16;5022518;28;20175;-75
2023/07/02 09:02:45;;;;;;;19.00;16.98;;;;;;;25.82;63.65;99927.06;5022924;28;20187;-74
2023/07/02 09:05:10;;;;;;;17.83;16.03;;;;;;;25.75;64.10;99922.34;5024868;28;20254;-74
2023/07/02 09:07:55;;;;;;;18.77;16.83;;;;;;;25.71;64.81;99925.25;5032217;28;20229;-73
2023/07/02 09:10:30;;;;;;;17.60;15.70;;;;;;;25.67;65.37;99920.31;5030574;28;20202;-74
2023/07/02 09:13:06;;;;;;;21.27;16.73;;;;;;;25.72;65.29;99916.34;5025221;28;20179;-76
2023/07/02 09:15:41;;;;;;;18.03;16.20;;;;;;;25.62;65.60;99922.50;5028406;28;20218;-73
2023/07/02 09:18:26;;;;;;;19.87;16.97;;;;;;;25.67;65.40;99923.81;5064614;28;20274;-75
2023/07/02 09:20:54;;;;;;;17.80;15.73;;;;;;;25.79;64.49;99924.63;5039145;28;20187;-75
2023/07/02 09:23:20;;;;;;;18.07;16.27;;;;;;;25.55;64.06;99928.25;5033559;28;20274;-74
2023/07/02 09:25:45;;;;;;;18.37;16.40;;;;;;;25.29;64.72;99929.41;5023156;28;20203;-75
2023/07/02 09:28:19;;;;;;;18.13;16.23;;;;;;;25.29;65.21;99919.66;5033160;28;20264;-75
2023/07/02 09:30:58;;;;;;;18.77;16.17;;;;;;;25.19;65.57;99924.81;5030999;28;20596;-74
2023/07/02 09:33:24;;;;;;;19.97;16.57;;;;;;;25.08;65.90;99925.66;5037471;28;20205;-74
2023/07/02 09:35:51;;;;;;;18.20;16.30;;;;;;;25.21;66.68;99911.47;5024138;28;20846;-74
2023/07/02 09:38:16;;;;;;;17.57;15.63;;;;;;;25.29;66.14;99927.59;5030634;28;20197;-74
2023/07/02 09:40:47;;;;;;;21.93;18.00;;;;;;;24.81;66.13;99917.97;5027525;28;20968;-74
2023/07/02 09:43:15;;;;;;;18.77;16.60;;;;;;;24.56;67.32;99925.06;5027376;28;20262;-73
2023/07/02 09:45:45;;;;;;;20.70;17.50;;;;;;;24.12;69.68;99919.41;5038804;28;20886;-74
2023/07/02 09:48:14;;;;;;;20.70;16.50;;;;;;;24.35;69.00;99915.09;5035417;28;20206;-74
2023/07/02 09:50:44;;;;;;;18.77;16.77;;;;;;;24.48;69.74;99916.84;5033456;28;20188;-74
2023/07/02 09:53:10;;;;;;;18.90;16.57;;;;;;;24.71;69.11;99917.81;5034202;28;20218;-73
2023/07/02 09:55:36;;;;;;;19.33;17.27;;;;;;;24.82;68.46;99911.72;5041085;28;20211;-75
2023/07/02 09:58:02;;;;;;;19.10;16.90;;;;;;;24.98;67.19;99915.84;5035704;28;20241;-73
2023/07/02 10:00:27;;;;;;;19.07;16.87;;;;;;;24.87;66.14;99916.66;5033373;28;20290;-74
2023/07/02 10:02:52;;;;;;;19.17;17.17;;;;;;;25.00;67.20;99903.34;5033608;28;20187;-74
2023/07/02 10:05:29;;;;;;;19.33;16.83;;;;;;;25.27;66.90;99898.59;5025638;28;20238;-73
2023/07/02 10:07:58;;;;;;;18.73;16.73;;;;;;;25.71;66.39;99905.88;5041491;28;20683;-73
2023/07/02 10:10:28;;;;;;;19.47;17.27;;;;;;;26.00;66.64;99911.50;5040210;28;20229;-74
2023/07/02 10:12:54;;;;;;;18.30;16.40;;;;;;;26.23;65.76;99903.53;5028123;28;20180;-72
2023/07/02 10:15:29;;;;;;;19.70;16.70;;;;;;;26.29;64.94;99905.69;5034741;28;20582;-73
2023/07/02 10:18:00;;;;;;;20.87;17.73;;;;;;;25.90;64.37;99910.53;5038890;28;20210;-74
2023/07/02 10:20:33;;;;;;;19.47;16.30;;;;;;;25.81;65.43;99908.63;5035896;28;20677;-73
2023/07/02 10:22:59;;;;;;;18.67;16.53;;;;;;;25.80;65.23;99907.78;5030256;28;20702;-74
2023/07/02 10:25:28;;;;;;;20.50;17.50;;;;;;;25.84;64.97;99909.22;5031027;28;20207;-74
2023/07/02 10:27:55;;;;;;;19.17;15.73;;;;;;;25.63;64.92;99900.34;5026115;28;20294;-74
2023/07/02 10:30:31;;;;;;;17.80;15.47;;;;;;;25.82;63.59;99891.78;5042082;28;20197;-74
2023/07/02 10:33:10;;;;;;;18.23;16.33;;;;;;;25.82;63.32;99905.03;5024695;28;20205;-73
2023/07/02 10:35:35;;;;;;;19.13;16.53;;;;;;;25.88;62.14;99893.91;5021409;28;20211;-74
2023/07/02 10:38:00;;;;;;;17.20;14.77;;;;;;;25.91;61.78;99904.28;5029611;28;20240;-73
2023/07/02 10:40:26;;;;;;;18.27;16.30;;;;;;;25.84;62.79;99895.97;5030249;28;20245;-73
2023/07/02 10:42:52;;;;;;;17.57;15.63;;;;;;;25.94;62.78;99904.03;5030963;28;20286;-74
2023/07/02 10:45:19;;;;;;;17.47;15.57;;;;;;;25.94;62.75;99901.38;5032278;28;20226;-74
2023/07/02 10:47:45;;;;;;;17.90;16.07;;;;;;;25.86;62.03;99888.75;5034373;28;20195;-73
2023/07/02 10:50:21;;;;;;;19.00;16.27;;;;;;;25.73;60.78;99888.03;5033263;28;20182;-73
2023/07/02 10:52:47;;;;;;;17.50;15.40;;;;;;;25.91;60.63;99906.09;5038466;28;20193;-73
2023/07/02 10:55:20;;;;;;;18.87;15.57;;;;;;;26.08;59.76;99900.28;5031404;28;20207;-75
2023/07/02 10:57:47;;;;;;;18.03;15.80;;;;;;;26.36;58.80;99902.53;5032654;28;20731;-73
2023/07/02 11:00:12;;;;;;;17.17;15.17;;;;;;;26.60;59.11;99899.66;5031223;28;20307;-74
2023/07/02 11:02:38;;;;;;;16.80;15.00;;;;;;;26.89;58.97;99893.75;5068950;28;20618;-74
2023/07/02 11:05:12;;;;;;;18.67;16.33;;;;;;;27.07;59.71;99896.69;5035366;28;20314;-73
2023/07/02 11:07:44;;;;;;;18.50;16.53;;;;;;;26.91;60.09;99890.03;5028132;28;20651;-73
2023/07/02 11:10:16;;;;;;;19.20;16.73;;;;;;;26.68;60.20;99897.22;5029110;28;20282;-74
2023/07/02 11:12:42;;;;;;;18.60;16.60;;;;;;;26.25;60.09;99892.78;5031888;28;20563;-74
2023/07/02 11:15:13;;;;;;;17.83;15.33;;;;;;;26.21;60.27;99894.84;5035565;28;20211;-74
2023/07/02 11:17:40;;;;;;;16.47;14.87;;;;;;;26.27;60.50;99891.72;5038744;28;20186;-74